Time;durP1;ratioP1;P1;durP2;ratioP2;P2;SDS_P1;SDS_P2;PMS_P1;PMS_P2;Temp;Humidity;BMP_temperature;BMP_pressure;BME280_temperature;BME280_humidity;BME280_pressure;Samples;Min_cycle;Max_cycle;Signal;HPM_P1;HPM_P2
2021/11/18 00:00:54;;;;;;;40.43;23.83;;;;;;;6.47;89.46;100999.78;1631953;85;27591;-83
2021/11/18 00:03:21;;;;;;;35.88;20.95;;;;;;;6.45;89.48;100997.77;1645586;85;25375;-83
2021/11/18 00:05:49;;;;;;;35.58;20.92;;;;;;;6.44;89.68;101003.58;1663471;85;26618;-82
2021/11/18 00:08:17;;;;;;;32.25;20.25;;;;;;;6.40;89.87;100994.71;1640879;86;26021;-82
2021/11/18 00:10:57;;;;;;;30.48;19.65;;;;;;;6.39;89.89;100993.05;1625598;86;26548;-82
2021/11/18 00:13:29;;;;;;;32.37;21.03;;;;;;;6.36;90.07;100996.00;1639724;86;28199;-84
2021/11/18 00:15:57;;;;;;;33.28;21.75;;;;;;;6.34;90.19;101000.64;1646626;85;25934;-83
2021/11/18 00:18:29;;;;;;;36.73;21.90;;;;;;;6.33;90.31;100998.46;1634448;86;25892;-83
2021/11/18 00:21:01;;;;;;;30.95;20.45;;;;;;;6.32;90.54;100997.30;1632745;86;25800;-83
2021/11/18 00:23:38;;;;;;;34.48;22.17;;;;;;;6.32;90.78;100995.47;1652329;85;25659;-83
2021/11/18 00:26:07;;;;;;;36.38;20.48;;;;;;;6.31;90.90;100990.31;1640114;86;27493;-82
2021/11/18 00:28:34;;;;;;;36.85;21.20;;;;;;;6.31;91.39;100991.64;1653481;85;25891;-83
2021/11/18 00:31:03;;;;;;;36.98;23.22;;;;;;;6.29;91.05;100994.43;1634861;85;26519;-84
2021/11/18 00:33:31;;;;;;;35.45;21.37;;;;;;;6.30;91.01;100988.63;1649723;85;26400;-84
2021/11/18 00:35:59;;;;;;;39.55;22.42;;;;;;;6.30;91.31;100993.45;1672035;85;25822;-82
2021/11/18 00:38:27;;;;;;;35.13;23.38;;;;;;;6.31;91.29;100988.98;1652822;85;27137;-82
2021/11/18 00:40:56;;;;;;;35.73;22.30;;;;;;;6.30;91.27;101003.25;1653652;84;26056;-84
2021/11/18 00:43:24;;;;;;;37.10;21.85;;;;;;;6.30;91.25;101004.59;1628996;84;25956;-83
2021/11/18 00:45:52;;;;;;;39.75;24.35;;;;;;;6.27;91.49;100998.22;1671308;84;26250;-84
2021/11/18 00:48:21;;;;;;;39.00;24.45;;;;;;;6.26;91.41;100999.22;1686223;84;25834;-83
2021/11/18 00:50:53;;;;;;;34.83;22.00;;;;;;;6.27;91.49;101000.40;1653320;84;27496;-83
2021/11/18 00:53:23;;;;;;;37.20;22.98;;;;;;;6.27;91.71;100995.08;1595516;86;26525;-83
2021/11/18 00:55:51;;;;;;;34.70;23.27;;;;;;;6.27;91.71;100993.75;1645999;84;25933;-84
2021/11/18 00:58:19;;;;;;;37.48;23.25;;;;;;;6.26;91.65;101001.41;1651499;84;25915;-82
2021/11/18 01:00:48;;;;;;;39.40;23.98;;;;;;;6.24;91.95;101000.20;1628172;84;25966;-84
2021/11/18 01:03:19;;;;;;;37.77;21.93;;;;;;;6.24;91.80;100996.20;1634222;86;27599;-83
2021/11/18 01:05:49;;;;;;;35.50;21.43;;;;;;;6.27;91.85;101001.73;1656436;86;25865;-83
2021/11/18 01:08:17;;;;;;;32.47;20.87;;;;;;;6.28;91.93;100999.42;1652869;84;25393;-85
2021/11/18 01:10:51;;;;;;;36.63;22.27;;;;;;;6.28;92.12;101001.23;1616101;86;26493;-83
2021/11/18 01:13:20;;;;;;;34.92;21.52;;;;;;;6.26;91.93;101006.72;1636074;85;25847;-84
2021/11/18 01:15:49;;;;;;;35.73;22.05;;;;;;;6.26;92.05;101004.55;1667769;85;28276;-84
2021/11/18 01:18:17;;;;;;;34.27;21.60;;;;;;;6.24;92.19;100999.38;1627232;84;25837;-83
2021/11/18 01:20:46;;;;;;;33.95;22.15;;;;;;;6.22;92.16;101011.48;1638189;84;25872;-82
2021/11/18 01:23:18;;;;;;;37.70;21.97;;;;;;;6.23;92.52;101005.67;1656272;84;25854;-83
2021/11/18 01:25:45;;;;;;;36.40;22.05;;;;;;;6.24;92.38;101006.84;1671934;84;25842;-83
2021/11/18 01:28:13;;;;;;;39.75;22.52;;;;;;;6.25;92.46;101003.70;1648367;84;28140;-84
2021/11/18 01:30:43;;;;;;;35.68;20.37;;;;;;;6.23;92.48;101011.84;1637131;84;25890;-82
2021/11/18 01:33:14;;;;;;;35.95;21.93;;;;;;;6.21;92.85;101015.63;1622332;84;25986;-84
2021/11/18 01:35:46;;;;;;;34.40;20.08;;;;;;;6.17;92.92;101007.12;1667248;84;26531;-83
2021/11/18 01:38:14;;;;;;;39.15;24.02;;;;;;;6.16;93.05;101013.41;1649494;84;26385;-85
2021/11/18 01:40:48;;;;;;;31.35;19.60;;;;;;;6.16;93.06;101017.40;1622270;84;27477;-82
2021/11/18 01:43:41;;;;;;;40.78;22.27;;;;;;;6.16;93.51;101010.75;1662355;84;25847;-83
2021/11/18 01:46:13;;;;;;;40.85;23.95;;;;;;;6.12;93.40;101025.33;1669059;84;26029;-83
2021/11/18 01:48:40;;;;;;;36.48;22.15;;;;;;;6.10;93.34;101019.81;1648536;84;26178;-83
2021/11/18 01:51:08;;;;;;;39.30;23.20;;;;;;;6.11;93.69;101015.70;1637727;84;25548;-83
2021/11/18 01:53:43;;;;;;;38.73;23.57;;;;;;;6.11;93.70;101018.84;1623422;84;28501;-83
2021/11/18 01:56:16;;;;;;;43.70;23.40;;;;;;;6.09;93.70;101017.64;1665242;84;26559;-85
2021/11/18 01:58:51;;;;;;;37.98;21.97;;;;;;;6.12;93.61;101027.14;1656404;84;26499;-82
2021/11/18 02:01:19;;;;;;;38.85;24.10;;;;;;;6.13;93.69;101023.52;1644535;84;26185;-84
2021/11/18 02:03:48;;;;;;;37.65;23.27;;;;;;;6.14;93.76;101026.50;1639829;84;25924;-83
2021/11/18 02:06:35;;;;;;;42.58;24.87;;;;;;;6.13;93.90;101028.35;1661687;84;27402;-85
2021/11/18 02:09:11;;;;;;;39.48;22.75;;;;;;;6.13;93.81;101028.84;1642534;84;26001;-83
2021/11/18 02:11:49;;;;;;;36.73;21.80;;;;;;;6.12;94.28;101037.78;1663696;84;25921;-83
2021/11/18 02:14:20;;;;;;;39.85;23.90;;;;;;;6.09;94.18;101034.92;1642645;84;26463;-84
2021/11/18 02:16:48;;;;;;;;;;;;;;;6.09;94.23;101031.45;1667257;84;25799;-83
2021/11/18 02:19:18;;;;;;;41.40;24.25;;;;;;;6.10;94.29;101023.31;1665618;84;27322;-83
2021/11/18 02:21:50;;;;;;;32.73;20.23;;;;;;;6.09;94.37;101016.30;1651777;84;25816;-83
2021/11/18 02:24:26;;;;;;;40.55;22.60;;;;;;;6.11;94.75;101021.50;1645443;84;26080;-82
2021/11/18 02:26:55;;;;;;;32.38;20.35;;;;;;;6.12;94.42;101025.81;1661417;84;25888;-83
2021/11/18 02:29:23;;;;;;;41.50;23.98;;;;;;;6.12;94.53;101025.33;1639728;84;25909;-84
2021/11/18 02:32:03;;;;;;;33.73;21.75;;;;;;;6.12;94.55;101013.85;1650717;84;27599;-84
2021/11/18 02:34:55;;;;;;;36.55;22.02;;;;;;;6.12;94.52;101025.33;1638590;84;25950;-83
2021/11/18 02:37:24;;;;;;;34.63;20.62;;;;;;;6.13;94.63;101028.35;1663920;84;25389;-84
2021/11/18 02:39:51;;;;;;;33.00;20.17;;;;;;;6.13;94.76;101031.02;1641458;84;26631;-84
2021/11/18 02:42:21;;;;;;;31.52;18.98;;;;;;;6.11;95.14;101028.99;1622232;84;25438;-82
2021/11/18 02:44:48;;;;;;;36.98;22.37;;;;;;;6.09;95.25;101029.61;1637574;84;27492;-83
2021/11/18 02:47:16;;;;;;;35.30;22.45;;;;;;;6.07;94.93;101027.59;1649771;84;25866;-85
2021/11/18 02:49:48;;;;;;;36.93;21.25;;;;;;;6.08;95.01;101021.78;1638798;84;25894;-83
2021/11/18 02:52:20;;;;;;;33.42;20.02;;;;;;;6.09;95.08;101018.16;1637189;84;26577;-84
2021/11/18 02:54:48;;;;;;;41.00;23.38;;;;;;;6.10;95.10;101029.12;1637058;84;26023;-84
2021/11/18 02:57:15;;;;;;;36.55;21.70;;;;;;;6.11;95.20;101029.48;1649341;84;28218;-83
2021/11/18 02:59:43;;;;;;;36.85;22.27;;;;;;;6.10;95.12;101034.44;1641035;84;25947;-82
2021/11/18 03:02:11;;;;;;;39.67;21.93;;;;;;;6.12;95.02;101037.78;1623078;84;25970;-82
2021/11/18 03:04:39;;;;;;;39.98;22.17;;;;;;;6.12;95.03;101042.62;1629924;84;26603;-82
2021/11/18 03:07:07;;;;;;;41.68;22.95;;;;;;;6.13;94.99;101046.97;1631781;84;25986;-82
2021/11/18 03:09:34;;;;;;;39.18;22.55;;;;;;;6.14;95.11;101044.64;1661922;84;28232;-84
2021/11/18 03:12:02;;;;;;;34.58;19.77;;;;;;;6.16;95.06;101048.47;1634760;84;25915;-83
2021/11/18 03:14:32;;;;;;;37.23;20.90;;;;;;;6.17;95.08;101042.18;1623075;84;25874;-84
2021/11/18 03:16:59;;;;;;;38.42;22.35;;;;;;;6.15;94.91;101041.01;1640856;84;25995;-83
2021/11/18 03:19:29;;;;;;;37.58;22.60;;;;;;;6.16;95.01;101044.00;1662279;84;26545;-84
2021/11/18 03:21:56;;;;;;;44.48;23.73;;;;;;;6.19;95.04;101047.70;1635520;84;27495;-83
2021/11/18 03:24:24;;;;;;;41.48;22.70;;;;;;;6.20;95.02;101039.24;1625325;84;25982;-84
2021/11/18 03:26:51;;;;;;;34.67;20.55;;;;;;;6.20;95.01;101036.58;1633958;84;26018;-83
2021/11/18 03:29:20;;;;;;;39.85;22.95;;;;;;;6.21;94.97;101039.56;1667051;84;25937;-84
2021/11/18 03:31:48;;;;;;;41.28;21.85;;;;;;;6.20;95.06;101041.38;1633324;84;25852;-82
2021/11/18 03:34:20;;;;;;;37.45;21.75;;;;;;;6.22;94.92;101041.26;1619876;84;27564;-84
2021/11/18 03:36:48;;;;;;;39.33;21.65;;;;;;;6.22;94.92;101050.05;1613477;84;25755;-83
2021/11/18 03:39:17;;;;;;;42.13;21.57;;;;;;;6.23;94.85;101057.06;1662046;84;26492;-84
2021/11/18 03:41:50;;;;;;;39.30;22.90;;;;;;;6.24;94.89;101056.05;1618691;84;25928;-83
2021/11/18 03:44:19;;;;;;;39.58;21.95;;;;;;;6.24;94.84;101061.89;1666246;84;25821;-83
2021/11/18 03:46:58;;;;;;;41.57;21.20;;;;;;;6.24;94.91;101062.70;1631623;84;27240;-83
2021/11/18 03:49:28;;;;;;;39.50;23.77;;;;;;;6.23;95.00;101070.36;1667777;84;25343;-84
2021/11/18 03:51:58;;;;;;;47.78;23.80;;;;;;;6.23;94.91;101057.55;1660894;84;25822;-84
2021/11/18 03:54:28;;;;;;;;;;;;;;;6.23;95.08;101058.88;1627853;84;26941;-84
2021/11/18 03:56:57;;;;;;;41.23;21.00;;;;;;;6.22;94.95;101063.87;1637878;84;25969;-84
2021/11/18 03:59:29;;;;;;;44.67;23.15;;;;;;;6.22;95.16;101058.55;1640280;84;27578;-84
2021/11/18 04:01:58;;;;;;;47.43;24.90;;;;;;;6.22;94.96;101055.38;1635889;84;26076;-84
2021/11/18 04:04:34;;;;;;;46.98;26.50;;;;;;;6.24;94.85;101057.39;1600928;84;25863;-83
2021/11/18 04:07:01;;;;;;;44.03;24.67;;;;;;;6.27;94.89;101052.27;1664285;84;26105;-84
2021/11/18 04:09:29;;;;;;;43.30;23.10;;;;;;;6.27;94.74;101062.06;1650913;84;25910;-87
2021/11/18 04:12:01;;;;;;;46.55;23.73;;;;;;;6.28;94.73;101057.11;1613719;84;28967;-83
2021/11/18 04:14:31;;;;;;;44.77;25.08;;;;;;;6.30;94.71;101057.31;1577041;84;26093;-83
2021/11/18 04:16:59;;;;;;;48.52;26.35;;;;;;;6.31;94.61;101061.63;1663004;84;25868;-84
2021/11/18 04:19:26;;;;;;;42.38;24.82;;;;;;;6.31;94.53;101062.14;1665698;84;25963;-84
2021/11/18 04:21:55;;;;;;;48.42;24.57;;;;;;;6.31;94.54;101070.94;1635554;84;26080;-84
2021/11/18 04:24:26;;;;;;;42.95;23.80;;;;;;;6.33;94.50;101068.97;1587660;84;27500;-83
2021/11/18 04:26:54;;;;;;;45.70;24.02;;;;;;;6.35;94.57;101068.84;1660855;84;25847;-84
2021/11/18 04:29:30;;;;;;;56.83;28.45;;;;;;;6.35;94.60;101066.99;1659633;84;26134;-83
2021/11/18 04:32:04;;;;;;;47.17;23.95;;;;;;;6.35;94.62;101068.84;1635585;84;26539;-83
2021/11/18 04:34:33;;;;;;;46.85;25.45;;;;;;;6.34;94.68;101061.83;1629947;84;46134;-83
2021/11/18 04:37:01;;;;;;;47.17;26.10;;;;;;;6.34;94.64;101057.84;1612086;84;27964;-84
2021/11/18 04:39:28;;;;;;;50.10;26.50;;;;;;;6.35;94.67;101064.33;1636337;84;25376;-84
2021/11/18 04:41:55;;;;;;;55.08;25.65;;;;;;;6.34;94.87;101062.67;1615844;84;25856;-83
2021/11/18 04:44:25;;;;;;;42.93;25.52;;;;;;;6.33;94.86;101058.32;1647775;84;25905;-84
2021/11/18 04:46:54;;;;;;;45.17;24.57;;;;;;;6.32;94.90;101068.64;1634366;84;25403;-84
2021/11/18 04:49:22;;;;;;;48.25;26.10;;;;;;;6.32;95.26;101077.95;1665804;84;27476;-83
2021/11/18 04:51:50;;;;;;;50.10;26.07;;;;;;;6.31;95.19;101073.59;1635966;84;25931;-84
2021/11/18 04:54:17;;;;;;;53.28;26.40;;;;;;;6.32;95.11;101077.95;1647673;84;25915;-84
2021/11/18 04:56:44;;;;;;;45.23;24.43;;;;;;;6.33;95.18;101082.27;1630963;84;26939;-85
2021/11/18 04:59:11;;;;;;;50.15;26.23;;;;;;;6.34;95.25;101087.10;1667252;84;25925;-84
2021/11/18 05:01:40;;;;;;;48.85;26.70;;;;;;;6.34;95.14;101086.62;1637536;84;27621;-84
2021/11/18 05:04:09;;;;;;;51.10;27.35;;;;;;;6.35;95.15;101085.61;1634895;84;25915;-85
2021/11/18 05:06:36;;;;;;;44.90;27.60;;;;;;;6.34;95.22;101081.30;1630599;84;25935;-84
2021/11/18 05:09:06;;;;;;;44.33;22.80;;;;;;;6.34;95.32;101086.62;1665728;84;25925;-84
2021/11/18 05:11:34;;;;;;;46.75;25.12;;;;;;;6.34;95.42;101089.28;1666910;84;26300;-84
2021/11/18 05:14:03;;;;;;;47.90;27.90;;;;;;;6.32;95.53;101087.27;1639569;84;27584;-84
2021/11/18 05:16:31;;;;;;;42.50;25.85;;;;;;;6.33;95.45;101089.44;1631625;84;26464;-83
2021/11/18 05:19:00;;;;;;;47.17;26.52;;;;;;;6.32;95.59;101084.59;1634643;84;25941;-83
2021/11/18 05:21:29;;;;;;;45.90;26.20;;;;;;;6.32;95.50;101080.61;1639270;84;26404;-84
2021/11/18 05:24:00;;;;;;;40.55;22.48;;;;;;;6.34;95.57;101084.44;1668230;83;25780;-83
2021/11/18 05:26:27;;;;;;;;;;;;;;;6.35;95.73;101090.94;1648055;83;27511;-85
2021/11/18 05:28:54;;;;;;;44.90;25.57;;;;;;;6.33;95.64;101095.57;1646864;83;25986;-85
2021/11/18 05:31:24;;;;;;;47.45;24.60;;;;;;;6.32;95.77;101092.58;1601690;84;25930;-83
2021/11/18 05:33:53;;;;;;;50.90;26.77;;;;;;;6.32;95.82;101090.41;1592583;84;26011;-83
2021/11/18 05:36:22;;;;;;;40.92;25.23;;;;;;;6.33;95.75;101088.11;1666000;84;25386;-84
2021/11/18 05:38:49;;;;;;;48.15;27.05;;;;;;;6.34;95.73;101093.27;1668036;84;28266;-83
2021/11/18 05:41:18;;;;;;;43.48;25.17;;;;;;;6.36;95.72;101098.44;1660708;84;25895;-83
2021/11/18 05:43:46;;;;;;;42.43;24.43;;;;;;;6.36;95.76;101096.62;1614165;84;26077;-84
2021/11/18 05:46:17;;;;;;;48.58;26.10;;;;;;;6.37;95.66;101098.80;1672936;84;25834;-84
2021/11/18 05:48:44;;;;;;;47.95;26.30;;;;;;;6.39;95.71;101103.48;1663495;84;26100;-84
2021/11/18 05:51:13;;;;;;;47.17;26.37;;;;;;;6.40;95.70;101102.47;1648465;84;27520;-83
2021/11/18 05:53:43;;;;;;;42.23;23.90;;;;;;;6.40;95.67;101100.66;1596926;84;25949;-83
2021/11/18 05:56:15;;;;;;;45.73;25.15;;;;;;;6.42;95.64;101102.67;1665193;84;26006;-84
2021/11/18 05:58:46;;;;;;;44.73;25.05;;;;;;;6.42;95.56;101111.14;1660810;84;26057;-84
2021/11/18 06:01:15;;;;;;;47.58;26.87;;;;;;;6.40;95.44;101111.30;1631882;84;25851;-83
2021/11/18 06:03:43;;;;;;;49.10;26.27;;;;;;;6.43;95.38;101108.36;1614647;85;28267;-84
2021/11/18 06:06:12;;;;;;;39.23;23.52;;;;;;;6.44;95.36;101112.67;1658916;85;25960;-83
2021/11/18 06:08:40;;;;;;;43.85;23.90;;;;;;;6.44;95.26;101121.99;1667658;85;25795;-83
2021/11/18 06:11:10;;;;;;;38.83;25.32;;;;;;;6.45;95.33;101113.52;1629688;86;26538;-83
2021/11/18 06:13:38;;;;;;;45.80;27.00;;;;;;;6.45;95.27;101109.53;1606886;85;25814;-84
2021/11/18 06:16:08;;;;;;;43.65;24.20;;;;;;;6.44;95.33;101112.67;1671519;85;27531;-83
2021/11/18 06:18:35;;;;;;;48.42;27.13;;;;;;;6.45;95.31;101117.03;1653168;86;25962;-83
2021/11/18 06:21:03;;;;;;;41.45;26.10;;;;;;;6.46;95.33;101116.55;1646429;86;25667;-83
2021/11/18 06:23:30;;;;;;;38.55;22.77;;;;;;;6.46;95.29;101119.20;1636456;86;26505;-84
2021/11/18 06:25:57;;;;;;;43.08;23.25;;;;;;;6.46;95.30;101119.20;1665582;85;26049;-84
2021/11/18 06:28:24;;;;;;;40.43;24.23;;;;;;;6.48;95.24;101121.22;1656773;85;27543;-84
2021/11/18 06:30:57;;;;;;;43.78;24.45;;;;;;;6.49;95.18;101125.55;1628402;85;25800;-83
2021/11/18 06:33:25;;;;;;;46.73;25.27;;;;;;;6.48;95.15;101125.22;1584260;85;26082;-83
2021/11/18 06:35:54;;;;;;;44.20;24.17;;;;;;;6.48;95.22;101135.34;1639664;86;26605;-83
2021/11/18 06:38:23;;;;;;;38.38;22.25;;;;;;;6.48;95.21;101131.34;1669308;84;25901;-82
2021/11/18 06:40:51;;;;;;;42.30;25.00;;;;;;;6.50;95.25;101131.23;1656429;84;27544;-83
2021/11/18 06:43:20;;;;;;;43.75;25.30;;;;;;;6.50;95.20;101139.21;1642685;84;26019;-83
2021/11/18 06:45:50;;;;;;;43.48;22.75;;;;;;;6.50;95.14;101148.01;1611276;86;35575;-83
2021/11/18 06:48:22;;;;;;;38.75;24.18;;;;;;;6.50;95.14;101138.69;1666025;84;27119;-84
2021/11/18 06:50:52;;;;;;;40.20;23.60;;;;;;;6.53;95.08;101146.39;1663773;84;25827;-85
2021/11/18 06:53:19;;;;;;;40.52;22.15;;;;;;;6.53;95.03;101138.89;1600915;87;27558;-82
2021/11/18 06:55:46;;;;;;;42.20;24.20;;;;;;;6.53;95.06;101138.41;1646463;86;26860;-84
2021/11/18 06:58:13;;;;;;;46.80;23.47;;;;;;;6.55;95.05;101143.09;1662495;85;25992;-82
2021/11/18 07:00:42;;;;;;;46.00;23.35;;;;;;;6.56;94.90;101144.78;1642341;86;25877;-83
2021/11/18 07:03:11;;;;;;;40.35;23.98;;;;;;;6.56;94.90;101143.94;1624895;85;25994;-84
2021/11/18 07:05:39;;;;;;;33.30;20.52;;;;;;;6.57;94.94;101142.94;1647933;85;27512;-84
2021/11/18 07:08:09;;;;;;;37.63;21.15;;;;;;;6.57;94.91;101137.61;1660244;85;25350;-83
2021/11/18 07:10:40;;;;;;;42.25;21.55;;;;;;;6.56;95.00;101138.13;1630840;86;25412;-82
2021/11/18 07:13:20;;;;;;;36.03;22.05;;;;;;;6.57;95.07;101141.61;1638155;86;25911;-84
2021/11/18 07:15:48;;;;;;;35.92;21.40;;;;;;;6.56;95.08;101136.80;1606968;86;25352;-84
2021/11/18 07:18:16;;;;;;;33.38;20.30;;;;;;;6.56;95.16;101137.28;1663800;85;27646;-84
2021/11/18 07:20:43;;;;;;;34.45;22.25;;;;;;;6.55;95.11;101140.43;1653848;85;25918;-83
2021/11/18 07:23:11;;;;;;;35.78;21.40;;;;;;;6.54;95.18;101137.44;1623341;85;25920;-84
2021/11/18 07:25:50;;;;;;;35.58;20.23;;;;;;;6.55;95.27;101138.25;1653979;85;25861;-83
2021/11/18 07:28:20;;;;;;;39.58;23.12;;;;;;;6.54;95.32;101134.78;1656717;86;26533;-84
2021/11/18 07:30:48;;;;;;;44.42;22.52;;;;;;;6.55;95.33;101134.27;1634680;85;27587;-82
2021/11/18 07:33:17;;;;;;;44.27;22.93;;;;;;;6.55;95.35;101138.25;1626725;86;25973;-83
2021/11/18 07:35:45;;;;;;;35.30;20.77;;;;;;;6.54;95.42;101141.92;1633917;86;26018;-84
2021/11/18 07:38:12;;;;;;;36.60;21.52;;;;;;;6.53;95.50;101145.06;1659193;86;25898;-84
2021/11/18 07:40:41;;;;;;;39.13;21.75;;;;;;;6.54;95.40;101144.09;1638987;85;25521;-85
2021/11/18 07:43:22;;;;;;;34.38;21.37;;;;;;;6.56;95.53;101144.78;1634676;85;28546;-84
2021/11/18 07:45:57;;;;;;;34.98;20.00;;;;;;;6.58;95.55;101142.81;1652562;85;25877;-83
2021/11/18 07:48:27;;;;;;;40.52;20.50;;;;;;;6.62;95.53;101148.18;1646763;85;26801;-83
2021/11/18 07:50:55;;;;;;;32.08;18.98;;;;;;;6.67;95.54;101155.72;1638872;86;26820;-83
2021/11/18 07:53:25;;;;;;;37.58;22.60;;;;;;;6.72;95.57;101150.77;1617974;86;25979;-83
2021/11/18 07:55:53;;;;;;;34.75;19.17;;;;;;;6.74;95.46;101154.97;1612656;86;28456;-83
2021/11/18 07:58:21;;;;;;;35.68;21.93;;;;;;;6.77;95.12;101162.67;1648575;84;25975;-84
2021/11/18 08:00:51;;;;;;;43.35;21.85;;;;;;;6.78;95.12;101166.99;1650594;84;26049;-82
2021/11/18 08:03:24;;;;;;;37.70;20.55;;;;;;;6.81;95.06;101172.03;1638969;84;25887;-82
2021/11/18 08:06:16;;;;;;;33.13;21.48;;;;;;;6.85;95.02;101165.91;1644807;84;25890;-82
2021/11/18 08:08:47;;;;;;;39.00;21.42;;;;;;;6.88;94.98;101162.96;1668192;84;27560;-84
2021/11/18 08:11:19;;;;;;;31.87;19.40;;;;;;;6.92;94.93;101174.50;1652083;84;26426;-83
2021/11/18 08:13:47;;;;;;;35.20;19.62;;;;;;;6.97;94.82;101177.53;1645376;86;25867;-84
2021/11/18 08:16:16;;;;;;;32.48;18.10;;;;;;;7.00;94.37;101181.73;1623140;86;25923;-84
2021/11/18 08:18:45;;;;;;;33.23;19.17;;;;;;;7.01;94.33;101184.23;1653963;85;25459;-84
2021/11/18 08:21:13;;;;;;;30.17;18.95;;;;;;;7.01;94.08;101187.41;1630585;85;28268;-84
2021/11/18 08:23:41;;;;;;;35.48;18.32;;;;;;;7.03;94.11;101189.43;1647579;85;25862;-83
2021/11/18 08:26:11;;;;;;;30.68;18.23;;;;;;;7.05;94.20;101191.45;1629439;86;25967;-83
2021/11/18 08:28:38;;;;;;;32.17;18.45;;;;;;;7.11;94.07;101190.00;1668658;84;25856;-85
2021/11/18 08:31:06;;;;;;;34.65;17.07;;;;;;;7.14;93.90;101195.05;1655599;84;25995;-83
2021/11/18 08:33:35;;;;;;;25.45;16.23;;;;;;;7.19;93.94;101196.73;1640993;86;28303;-84
2021/11/18 08:36:03;;;;;;;31.50;18.50;;;;;;;7.26;93.64;101201.82;1654178;84;25792;-83
2021/11/18 08:38:30;;;;;;;32.35;18.27;;;;;;;7.33;93.62;101208.23;1662275;85;25794;-84
2021/11/18 08:41:05;;;;;;;32.73;20.20;;;;;;;7.37;93.76;101205.61;1650113;85;25877;-83
2021/11/18 08:43:37;;;;;;;30.62;16.73;;;;;;;7.41;93.26;101211.81;1645626;85;25977;-85
2021/11/18 08:46:07;;;;;;;28.57;15.55;;;;;;;7.42;92.71;101208.66;1623328;86;27608;-83
2021/11/18 08:48:37;;;;;;;32.55;17.50;;;;;;;7.39;92.52;101199.63;1656994;85;26021;-82
2021/11/18 08:51:06;;;;;;;25.02;16.20;;;;;;;7.37;92.50;101201.12;1649572;86;25566;-84
2021/11/18 08:53:37;;;;;;;32.55;17.52;;;;;;;7.37;92.51;101197.61;1633589;86;25941;-84
2021/11/18 08:56:05;;;;;;;;;;;;;;;7.35;92.14;101205.77;1646606;85;26496;-82
2021/11/18 08:58:38;;;;;;;31.90;16.17;;;;;;;7.33;91.96;101202.91;1664580;85;27495;-83
2021/11/18 09:01:15;;;;;;;29.80;18.07;;;;;;;7.28;91.97;101206.50;1647061;85;25991;-83
2021/11/18 09:03:44;;;;;;;28.67;17.30;;;;;;;7.26;91.84;101206.66;1661188;85;25832;-83
2021/11/18 09:06:17;;;;;;;31.05;17.30;;;;;;;7.26;92.31;101201.33;1628736;85;26512;-84
2021/11/18 09:08:46;;;;;;;32.73;17.50;;;;;;;7.30;92.26;101211.19;1666944;85;25773;-82
2021/11/18 09:11:15;;;;;;;31.35;17.75;;;;;;;7.30;92.05;101224.51;1613017;85;27365;-82
2021/11/18 09:13:48;;;;;;;24.80;15.95;;;;;;;7.31;91.78;101216.87;1667040;85;25409;-82
2021/11/18 09:16:16;;;;;;;28.02;16.40;;;;;;;7.32;91.88;101222.05;1638530;85;25842;-83
2021/11/18 09:18:45;;;;;;;35.25;17.95;;;;;;;7.34;91.95;101223.22;1669488;85;25882;-83
2021/11/18 09:21:16;;;;;;;28.70;16.57;;;;;;;7.35;91.97;101224.91;1645202;86;25387;-83
2021/11/18 09:23:58;;;;;;;27.65;15.38;;;;;;;7.38;91.97;101217.92;1632645;85;27428;-83
2021/11/18 09:26:28;;;;;;;34.65;16.17;;;;;;;7.40;91.79;101215.98;1661172;85;26094;-83
2021/11/18 09:28:57;;;;;;;32.90;16.48;;;;;;;7.42;91.38;101215.33;1661073;85;34968;-83
2021/11/18 09:31:29;;;;;;;34.85;18.17;;;;;;;7.44;91.43;101214.68;1646126;86;26478;-83
2021/11/18 09:33:58;;;;;;;29.55;17.32;;;;;;;7.46;91.29;101208.70;1628950;85;25794;-82
2021/11/18 09:36:28;;;;;;;29.10;16.97;;;;;;;7.48;91.32;101206.23;1636777;86;28149;-82
2021/11/18 09:38:58;;;;;;;24.72;17.00;;;;;;;7.50;91.36;101210.06;1661230;86;25934;-83
2021/11/18 09:41:52;;;;;;;34.00;18.62;;;;;;;7.50;90.90;101203.41;1612350;85;26098;-83
2021/11/18 09:44:49;;;;;;;28.15;15.38;;;;;;;7.50;90.99;101204.73;1671752;85;26437;-83
2021/11/18 09:47:49;;;;;;;25.08;14.35;;;;;;;7.50;90.86;101208.73;1635027;85;25965;-83
2021/11/18 09:50:41;;;;;;;23.35;14.93;;;;;;;7.48;90.36;101209.39;1671052;85;28378;-83
2021/11/18 09:53:56;;;;;;;32.28;15.00;;;;;;;7.50;90.62;101207.41;1638547;86;26032;-82
2021/11/18 09:56:46;;;;;;;29.95;20.30;;;;;;;7.51;90.13;101205.06;1604906;88;25378;-83
2021/11/18 09:59:30;;;;;;;53.60;39.10;;;;;;;7.51;90.02;101191.25;1628941;84;25848;-82
2021/11/18 10:02:35;;;;;;;31.68;17.37;;;;;;;7.53;90.24;101192.42;1659591;85;25890;-82
2021/11/18 10:05:35;;;;;;;24.50;13.98;;;;;;;7.55;90.01;101189.11;1637047;86;27357;-83
2021/11/18 10:08:10;;;;;;;26.15;12.75;;;;;;;7.59;89.58;101191.83;1654135;85;25967;-83
2021/11/18 10:10:53;;;;;;;27.42;13.53;;;;;;;7.58;88.81;101185.66;1636507;86;25880;-82
2021/11/18 10:13:42;;;;;;;25.77;13.45;;;;;;;7.56;88.97;101192.97;1636676;85;25646;-84
2021/11/18 10:16:23;;;;;;;23.73;11.93;;;;;;;7.55;88.60;101187.77;1656588;85;25870;-84
2021/11/18 10:18:55;;;;;;;23.25;12.73;;;;;;;7.55;88.82;101190.44;1634015;85;28208;-83
2021/11/18 10:21:31;;;;;;;22.82;11.38;;;;;;;7.53;88.27;101195.08;1632855;86;25994;-82
2021/11/18 10:24:03;;;;;;;20.80;11.43;;;;;;;7.53;88.61;101202.59;1656111;84;25346;-84
2021/11/18 10:26:35;;;;;;;25.37;12.37;;;;;;;7.55;88.72;101201.09;1665229;84;26735;-83
2021/11/18 10:29:17;;;;;;;22.17;12.00;;;;;;;7.60;88.95;101197.00;1646580;85;26157;-82
2021/11/18 10:32:09;;;;;;;21.60;10.58;;;;;;;7.67;89.11;101198.56;1672240;85;28100;-83
2021/11/18 10:34:52;;;;;;;22.15;10.58;;;;;;;7.70;88.02;101199.08;1621765;86;25960;-83
2021/11/18 10:37:30;;;;;;;27.55;11.48;;;;;;;7.75;88.49;101192.80;1667419;85;25955;-83
2021/11/18 10:40:23;;;;;;;20.25;9.85;;;;;;;7.78;87.92;101185.00;1638757;85;26478;-83
2021/11/18 10:42:58;;;;;;;21.25;10.03;;;;;;;7.80;87.22;101183.83;1667163;85;25898;-81
2021/11/18 10:45:35;;;;;;;23.67;11.70;;;;;;;7.83;87.08;101182.69;1630067;85;27976;-83
2021/11/18 10:48:28;;;;;;;22.90;9.05;;;;;;;7.86;86.29;101182.87;1657217;85;26019;-83
2021/11/18 10:51:02;;;;;;;22.20;9.55;;;;;;;7.89;86.89;101179.39;1672626;85;25881;-83
2021/11/18 10:53:58;;;;;;;16.70;9.15;;;;;;;7.92;86.07;101180.43;1666092;84;25897;-82
2021/11/18 10:56:42;;;;;;;15.88;8.45;;;;;;;7.93;84.94;101186.61;1618974;86;25883;-83
2021/11/18 10:59:14;;;;;;;20.52;9.75;;;;;;;7.92;85.47;101185.77;1662438;86;28140;-83
2021/11/18 11:01:49;;;;;;;17.07;10.35;;;;;;;7.94;84.66;101185.59;1599993;86;25872;-83
2021/11/18 11:04:39;;;;;;;24.18;10.20;;;;;;;7.95;84.75;101190.80;1628613;86;26079;-83
2021/11/18 11:07:10;;;;;;;19.77;11.28;;;;;;;7.97;84.61;101196.81;1621990;85;25971;-83
2021/11/18 11:09:45;;;;;;;49.42;24.20;;;;;;;7.97;84.05;101194.64;1670950;85;25977;-82
2021/11/18 11:12:35;;;;;;;54.63;29.18;;;;;;;7.97;83.76;101192.81;1637646;85;27499;-83
2021/11/18 11:15:44;;;;;;;33.23;17.12;;;;;;;7.97;83.75;101193.30;1650349;86;25888;-83
2021/11/18 11:18:35;;;;;;;31.02;16.85;;;;;;;7.99;83.36;101197.49;1613347;86;25900;-84
2021/11/18 11:21:25;;;;;;;20.80;9.88;;;;;;;8.03;84.33;101199.34;1662381;85;26458;-83
2021/11/18 11:24:19;;;;;;;19.60;9.20;;;;;;;8.07;82.79;101200.22;1652342;84;25823;-82
2021/11/18 11:27:00;;;;;;;19.73;9.23;;;;;;;8.05;82.05;101198.20;1659938;86;27603;-83
2021/11/18 11:29:36;;;;;;;;;;;;;;;8.00;81.88;101202.34;1625047;84;26550;-84
2021/11/18 11:32:24;;;;;;;16.73;8.40;;;;;;;7.96;82.35;101198.28;1663950;85;25929;-83
2021/11/18 11:35:31;;;;;;;13.70;7.15;;;;;;;7.91;82.92;101198.78;1643461;84;26416;-85
2021/11/18 11:38:45;;;;;;;23.85;9.20;;;;;;;7.92;82.40;101191.09;1597353;84;25401;-83
2021/11/18 11:41:54;;;;;;;16.85;7.85;;;;;;;7.92;82.91;101187.59;1664943;84;28627;-83
2021/11/18 11:44:30;;;;;;;19.25;8.75;;;;;;;7.91;82.43;101184.59;1660479;84;25918;-84